Time;durP1;ratioP1;P1;durP2;ratioP2;P2;SDS_P1;SDS_P2;PMS_P1;PMS_P2;Temp;Humidity;BMP_temperature;BMP_pressure;BME280_temperature;BME280_humidity;BME280_pressure;Samples;Min_cycle;Max_cycle;Signal;HPM_P1;HPM_P2
2023/06/27 00:00:53;;;;;;;3.28;2.05;;;19.70;99.90;;;;;;5005743;28;20577;-38
2023/06/27 00:03:19;;;;;;;2.35;1.98;;;19.70;99.90;;;;;;5000240;28;20203;-36
2023/06/27 00:05:46;;;;;;;5.15;2.25;;;19.60;99.90;;;;;;5001220;28;20175;-35
2023/06/27 00:08:12;;;;;;;5.03;2.00;;;19.60;99.90;;;;;;5001298;28;20249;-35
2023/06/27 00:10:38;;;;;;;4.07;2.00;;;19.50;99.90;;;;;;5001717;28;20179;-34
2023/06/27 00:13:04;;;;;;;3.58;1.73;;;19.50;99.90;;;;;;4994037;28;20191;-38
2023/06/27 00:15:34;;;;;;;4.75;2.17;;;19.40;99.90;;;;;;4994654;28;20188;-36
2023/06/27 00:18:00;;;;;;;4.03;1.90;;;19.40;99.90;;;;;;5010098;28;20233;-38
2023/06/27 00:20:26;;;;;;;4.72;1.95;;;19.30;99.90;;;;;;4998715;28;20202;-35
2023/06/27 00:22:52;;;;;;;4.47;2.10;;;19.20;99.90;;;;;;5005206;28;20258;-34
2023/06/27 00:25:19;;;;;;;4.90;2.38;;;19.20;99.90;;;;;;5010845;28;20187;-35
2023/06/27 00:27:45;;;;;;;5.78;2.50;;;19.10;99.90;;;;;;4998858;28;20203;-35
2023/06/27 00:30:11;;;;;;;4.10;2.13;;;19.10;99.90;;;;;;5020382;28;20185;-39
2023/06/27 00:32:38;;;;;;;3.85;2.00;;;19.00;99.90;;;;;;5009315;28;20215;-38
2023/06/27 00:35:04;;;;;;;4.28;2.00;;;19.00;99.90;;;;;;5009683;28;20226;-33
2023/06/27 00:37:30;;;;;;;6.13;2.20;;;19.00;99.90;;;;;;4994346;28;20234;-35
2023/06/27 00:39:56;;;;;;;2.95;2.03;;;18.90;99.90;;;;;;4994019;28;20217;-39
2023/06/27 00:42:22;;;;;;;2.90;1.80;;;18.90;99.90;;;;;;5001335;28;20335;-36
2023/06/27 00:44:47;;;;;;;2.95;1.80;;;18.90;99.90;;;;;;5005089;28;20252;-35
2023/06/27 00:47:13;;;;;;;3.38;2.08;;;18.90;99.90;;;;;;5001493;28;20202;-36
2023/06/27 00:49:39;;;;;;;4.53;2.05;;;18.90;99.90;;;;;;5004113;28;20178;-40
2023/06/27 00:52:06;;;;;;;3.35;2.10;;;18.80;99.90;;;;;;5025715;28;20274;-38
2023/06/27 00:54:32;;;;;;;3.33;1.92;;;18.80;99.90;;;;;;5005629;28;20190;-36
2023/06/27 00:56:58;;;;;;;3.90;2.20;;;18.70;99.90;;;;;;5007153;28;20207;-35
2023/06/27 00:59:25;;;;;;;3.17;2.03;;;18.70;99.90;;;;;;5011967;28;20194;-36
2023/06/27 01:01:51;;;;;;;2.60;2.10;;;18.60;99.90;;;;;;4998766;28;20211;-36
2023/06/27 01:04:18;;;;;;;3.78;1.90;;;18.60;99.90;;;;;;5018664;28;20214;-39
2023/06/27 01:07:00;;;;;;;4.40;1.80;;;18.60;99.90;;;;;;5010638;28;20204;-38
2023/06/27 01:09:29;;;;;;;5.32;2.20;;;18.50;99.90;;;;;;5008561;28;20183;-36
2023/06/27 01:12:32;;;;;;;3.85;2.00;;;18.50;99.90;;;;;;5027082;28;20200;-37
2023/06/27 01:14:59;;;;;;;3.13;1.90;;;18.50;99.90;;;;;;4998755;28;20221;-38
2023/06/27 01:17:28;;;;;;;7.10;2.40;;;18.40;99.90;;;;;;5031010;28;20201;-38
2023/06/27 01:19:55;;;;;;;4.72;1.90;;;18.40;99.90;;;;;;5024270;28;20179;-39
2023/06/27 01:22:30;;;;;;;5.35;2.28;;;18.40;99.90;;;;;;5007257;28;20209;-39
2023/06/27 01:24:59;;;;;;;4.85;1.92;;;18.40;99.90;;;;;;5013699;28;20221;-38
2023/06/27 01:27:29;;;;;;;4.55;2.58;;;18.40;99.90;;;;;;5014475;28;20198;-36
2023/06/27 01:29:56;;;;;;;3.28;2.08;;;18.50;99.90;;;;;;5015835;28;20199;-36
2023/06/27 01:32:39;;;;;;;3.65;1.98;;;18.50;99.90;;;;;;5013315;28;20242;-39
2023/06/27 01:35:08;;;;;;;3.67;2.10;;;18.60;99.90;;;;;;5014601;28;20194;-38
2023/06/27 01:37:40;;;;;;;3.33;2.03;;;18.60;99.90;;;;;;5008252;28;20685;-36
2023/06/27 01:40:13;;;;;;;4.45;2.28;;;18.50;99.90;;;;;;5016787;28;20206;-38
2023/06/27 01:42:43;;;;;;;4.13;2.08;;;18.40;99.90;;;;;;5007847;28;20233;-34
2023/06/27 01:45:14;;;;;;;4.18;2.20;;;18.40;99.90;;;;;;5007642;28;20184;-35
2023/06/27 01:47:42;;;;;;;3.95;1.95;;;18.40;99.90;;;;;;5011609;28;20199;-37
2023/06/27 01:50:11;;;;;;;4.38;2.00;;;18.40;99.90;;;;;;5006743;28;20181;-34
2023/06/27 01:52:39;;;;;;;4.75;2.10;;;18.40;99.90;;;;;;5013883;28;20206;-38
2023/06/27 01:55:06;;;;;;;3.58;2.10;;;18.40;99.90;;;;;;5014313;28;20278;-36
2023/06/27 01:57:33;;;;;;;3.97;2.40;;;18.40;99.90;;;;;;5015688;28;20206;-34
2023/06/27 01:59:59;;;;;;;4.20;2.15;;;18.40;99.90;;;;;;5013374;28;20187;-36
2023/06/27 02:02:24;;;;;;;7.05;2.30;;;18.40;99.90;;;;;;5010472;28;20203;-34
2023/06/27 02:04:51;;;;;;;3.55;2.28;;;18.40;99.90;;;;;;5008647;28;20201;-37
2023/06/27 02:07:18;;;;;;;4.47;1.92;;;18.40;99.90;;;;;;5010982;28;20213;-35
2023/06/27 02:09:43;;;;;;;3.58;2.00;;;18.50;99.90;;;;;;5006065;28;20270;-36
2023/06/27 02:12:11;;;;;;;4.78;1.90;;;18.40;99.90;;;;;;5015534;28;20273;-38
2023/06/27 02:14:38;;;;;;;4.50;2.20;;;18.50;99.90;;;;;;5011111;28;20179;-38
2023/06/27 02:17:05;;;;;;;2.85;2.20;;;18.50;99.90;;;;;;5011002;28;20207;-36
2023/06/27 02:19:31;;;;;;;3.38;2.40;;;18.50;99.90;;;;;;5024711;28;20175;-34
2023/06/27 02:21:57;;;;;;;3.03;2.10;;;18.40;99.90;;;;;;5012710;28;20268;-36
2023/06/27 02:24:23;;;;;;;2.88;2.08;;;18.50;99.90;;;;;;5014785;28;20174;-38
2023/06/27 02:26:49;;;;;;;5.25;2.40;;;18.50;99.90;;;;;;5010230;28;20202;-36
2023/06/27 02:29:15;;;;;;;3.53;2.05;;;18.40;99.90;;;;;;5024531;28;20194;-37
2023/06/27 02:31:40;;;;;;;4.55;2.40;;;18.50;99.90;;;;;;5013481;28;20225;-36
2023/06/27 02:34:06;;;;;;;3.03;1.90;;;18.40;99.90;;;;;;5018274;28;20183;-36
2023/06/27 02:36:33;;;;;;;3.92;2.05;;;18.40;99.90;;;;;;5018165;28;20179;-34
2023/06/27 02:39:01;;;;;;;4.03;2.40;;;18.40;99.90;;;;;;5006124;28;20183;-37
2023/06/27 02:41:28;;;;;;;4.70;2.60;;;18.40;99.90;;;;;;5028015;28;20177;-40
2023/06/27 02:43:54;;;;;;;2.90;1.95;;;18.40;99.90;;;;;;5013717;28;20274;-38
2023/06/27 02:46:20;;;;;;;5.55;2.30;;;18.40;99.90;;;;;;5016940;28;20270;-40
2023/06/27 02:48:45;;;;;;;4.10;2.33;;;18.30;99.90;;;;;;5027695;28;20233;-38
2023/06/27 02:51:11;;;;;;;3.97;2.47;;;18.30;99.90;;;;;;5007709;28;20183;-38
2023/06/27 02:53:37;;;;;;;4.45;2.05;;;18.20;99.90;;;;;;5012445;28;20282;-36
2023/06/27 02:56:04;;;;;;;3.42;2.50;;;18.00;99.90;;;;;;5009036;28;20178;-36
2023/06/27 02:58:33;;;;;;;6.68;2.38;;;17.90;99.90;;;;;;5002167;28;20199;-35
2023/06/27 03:00:59;;;;;;;4.72;2.70;;;17.80;99.90;;;;;;5013243;28;20198;-38
2023/06/27 03:03:26;;;;;;;6.28;2.47;;;17.70;99.90;;;;;;5001803;28;20223;-35
2023/06/27 03:05:52;;;;;;;4.18;2.67;;;17.70;99.90;;;;;;4999178;28;20274;-37
2023/06/27 03:08:18;;;;;;;3.60;2.42;;;17.70;99.90;;;;;;5012558;28;20214;-39
2023/06/27 03:10:44;;;;;;;5.40;2.50;;;17.70;99.90;;;;;;5011549;28;20257;-35
2023/06/27 03:13:11;;;;;;;4.20;2.28;;;17.70;99.90;;;;;;5008701;28;20296;-40
2023/06/27 03:15:38;;;;;;;4.88;2.25;;;17.70;99.90;;;;;;5003726;28;20183;-38
2023/06/27 03:18:04;;;;;;;4.43;2.20;;;17.80;99.90;;;;;;5009798;28;20213;-37
2023/06/27 03:20:30;;;;;;;5.47;2.17;;;17.80;99.90;;;;;;5005534;28;20190;-39
2023/06/27 03:22:58;;;;;;;4.78;2.30;;;17.80;99.90;;;;;;5011143;28;20210;-35
2023/06/27 03:25:24;;;;;;;4.50;2.60;;;17.80;99.90;;;;;;5010348;28;20182;-33
2023/06/27 03:27:51;;;;;;;3.88;2.40;;;17.80;99.90;;;;;;5018568;28;20292;-34
2023/06/27 03:30:18;;;;;;;4.20;2.33;;;17.80;99.90;;;;;;5008846;28;20282;-37
2023/06/27 03:32:44;;;;;;;4.28;2.20;;;17.80;99.90;;;;;;5012826;28;20206;-35
2023/06/27 03:35:10;;;;;;;4.20;2.40;;;17.80;99.90;;;;;;4996038;28;20183;-38
2023/06/27 03:37:37;;;;;;;4.10;2.20;;;17.90;99.90;;;;;;5007895;28;20195;-37
2023/06/27 03:40:04;;;;;;;4.55;2.17;;;17.90;99.90;;;;;;5017006;28;20201;-33
2023/06/27 03:42:44;;;;;;;5.13;2.53;;;17.90;99.90;;;;;;5005257;28;20234;-37
2023/06/27 03:45:15;;;;;;;4.07;2.50;;;17.90;99.90;;;;;;5012966;28;20186;-38
2023/06/27 03:47:45;;;;;;;4.35;2.55;;;17.90;99.90;;;;;;5024951;28;20203;-39
2023/06/27 03:50:12;;;;;;;5.78;2.60;;;17.90;99.90;;;;;;5023041;28;20226;-36
2023/06/27 03:52:42;;;;;;;3.95;2.50;;;17.90;99.90;;;;;;5014110;28;20269;-33
2023/06/27 03:55:12;;;;;;;6.95;2.45;;;18.00;99.90;;;;;;5012892;28;20193;-36
2023/06/27 03:57:41;;;;;;;3.53;2.30;;;17.90;99.90;;;;;;5028067;28;20207;-34
2023/06/27 04:00:07;;;;;;;5.65;2.60;;;17.90;99.90;;;;;;4999330;28;20196;-37
2023/06/27 04:02:41;;;;;;;7.13;2.60;;;17.90;99.90;;;;;;4992132;28;20292;-36
2023/06/27 04:05:09;;;;;;;4.13;2.08;;;17.90;99.90;;;;;;4981481;28;20238;-37
2023/06/27 04:07:35;;;;;;;3.65;2.10;;;17.90;99.90;;;;;;5007767;28;20223;-34
2023/06/27 04:10:02;;;;;;;2.85;2.13;;;18.00;99.90;;;;;;4986558;28;20182;-40
2023/06/27 04:12:28;;;;;;;5.45;2.72;;;18.00;99.90;;;;;;4994142;28;20314;-35
2023/06/27 04:14:54;;;;;;;4.30;2.28;;;18.00;99.90;;;;;;4985327;28;20197;-36
2023/06/27 04:17:20;;;;;;;4.55;2.60;;;18.00;99.90;;;;;;5017720;28;20209;-35
2023/06/27 04:19:46;;;;;;;7.40;2.92;;;18.10;99.90;;;;;;5001627;28;20179;-39
2023/06/27 04:22:12;;;;;;;4.90;2.38;;;18.10;99.90;;;;;;5013717;28;20215;-34
2023/06/27 04:24:38;;;;;;;4.18;2.58;;;18.10;99.90;;;;;;5003987;28;20260;-35
2023/06/27 04:27:04;;;;;;;5.95;2.45;;;18.10;99.90;;;;;;5001038;28;20202;-36
2023/06/27 04:29:30;;;;;;;5.63;2.17;;;18.10;99.90;;;;;;4986327;28;20229;-37
2023/06/27 04:31:56;;;;;;;5.07;2.40;;;18.10;99.90;;;;;;5009987;28;20187;-36
2023/06/27 04:34:21;;;;;;;4.47;2.58;;;18.20;99.90;;;;;;4989972;28;20184;-37
2023/06/27 04:36:47;;;;;;;4.57;2.60;;;18.10;99.90;;;;;;5004636;28;20210;-35
2023/06/27 04:39:13;;;;;;;3.80;2.50;;;18.10;99.90;;;;;;4982829;28;20188;-39
2023/06/27 04:41:39;;;;;;;4.93;2.97;;;18.00;99.90;;;;;;5001760;28;20224;-37
2023/06/27 04:44:05;;;;;;;4.40;2.60;;;18.00;99.90;;;;;;4982610;28;20190;-38
2023/06/27 04:46:31;;;;;;;5.57;2.83;;;17.90;99.90;;;;;;4991538;28;20247;-37
2023/06/27 04:48:57;;;;;;;4.03;2.53;;;17.90;99.90;;;;;;4991498;28;20190;-37
2023/06/27 04:51:29;;;;;;;4.82;2.88;;;18.00;99.90;;;;;;5004993;28;20179;-36
2023/06/27 04:53:56;;;;;;;4.75;2.50;;;18.00;99.90;;;;;;5018041;28;20190;-37
2023/06/27 04:56:22;;;;;;;6.07;2.60;;;18.00;99.90;;;;;;4988634;28;20188;-36
2023/06/27 04:58:48;;;;;;;6.68;3.00;;;18.00;99.90;;;;;;4993645;28;20234;-37
2023/06/27 05:01:15;;;;;;;6.85;2.58;;;18.00;99.90;;;;;;4989390;28;20191;-38
2023/06/27 05:03:41;;;;;;;3.75;3.03;;;17.90;99.90;;;;;;4998099;28;20208;-34
2023/06/27 05:06:07;;;;;;;3.22;2.47;;;17.90;99.90;;;;;;5000902;28;20189;-37
2023/06/27 05:08:35;;;;;;;6.72;2.65;;;18.00;99.90;;;;;;4986364;28;20290;-37
2023/06/27 05:11:01;;;;;;;4.38;2.63;;;17.90;99.90;;;;;;4992764;28;20625;-34
2023/06/27 05:13:27;;;;;;;4.97;2.40;;;17.90;99.90;;;;;;5006504;28;20188;-36
2023/06/27 05:15:53;;;;;;;7.00;2.40;;;17.90;99.90;;;;;;4984422;28;20187;-37
2023/06/27 05:18:18;;;;;;;6.60;2.78;;;17.90;99.90;;;;;;4984528;28;20211;-35
2023/06/27 05:20:47;;;;;;;4.13;2.28;;;18.00;99.90;;;;;;4991621;28;20249;-36
2023/06/27 05:23:13;;;;;;;4.47;2.55;;;17.90;99.90;;;;;;4991028;28;20208;-39
2023/06/27 05:25:41;;;;;;;5.95;2.75;;;18.00;99.90;;;;;;4993144;28;20236;-39
2023/06/27 05:28:08;;;;;;;4.45;2.60;;;18.00;99.90;;;;;;4991501;28;20205;-38
2023/06/27 05:30:33;;;;;;;4.63;2.58;;;18.10;99.90;;;;;;4994496;28;20176;-33
2023/06/27 05:33:02;;;;;;;4.57;2.33;;;18.10;99.90;;;;;;4991198;28;20318;-42
2023/06/27 05:35:28;;;;;;;5.65;2.85;;;18.10;99.90;;;;;;5001164;28;20184;-42
2023/06/27 05:37:54;;;;;;;4.68;2.63;;;18.20;99.90;;;;;;4982795;28;20261;-42
2023/06/27 05:40:20;;;;;;;4.65;2.38;;;18.20;99.90;;;;;;4993013;28;20190;-42
2023/06/27 05:42:46;;;;;;;4.85;2.50;;;18.20;99.90;;;;;;5001081;28;20203;-41
2023/06/27 05:45:12;;;;;;;6.05;2.95;;;18.20;99.90;;;;;;4991198;28;20179;-38
2023/06/27 05:47:37;;;;;;;6.95;2.50;;;18.30;99.90;;;;;;5001355;28;20204;-42
2023/06/27 05:50:04;;;;;;;2.92;2.13;;;18.30;99.90;;;;;;5008370;28;20187;-42
2023/06/27 05:52:30;;;;;;;3.80;2.30;;;18.40;99.90;;;;;;4998285;28;20179;-42
2023/06/27 05:54:56;;;;;;;4.45;2.30;;;18.40;99.90;;;;;;4993024;28;20191;-42
2023/06/27 05:57:22;;;;;;;7.32;3.38;;;18.40;99.90;;;;;;4989587;28;20207;-42
2023/06/27 05:59:48;;;;;;;5.93;2.70;;;18.50;99.90;;;;;;4997397;28;20179;-40
2023/06/27 06:02:14;;;;;;;4.72;2.72;;;18.50;99.90;;;;;;4982254;28;20207;-42
2023/06/27 06:04:39;;;;;;;4.63;2.40;;;18.50;99.90;;;;;;4993941;28;20184;-42
2023/06/27 06:07:06;;;;;;;7.78;2.50;;;18.60;99.90;;;;;;4986526;28;20221;-41
2023/06/27 06:09:32;;;;;;;8.55;3.20;;;18.70;99.90;;;;;;5003898;28;20179;-40
2023/06/27 06:11:58;;;;;;;3.55;2.47;;;18.70;99.90;;;;;;4996356;28;20203;-41
2023/06/27 06:14:24;;;;;;;5.25;2.58;;;18.80;99.90;;;;;;4992915;28;20191;-41
2023/06/27 06:16:50;;;;;;;6.38;2.50;;;18.80;99.90;;;;;;5013032;28;20203;-41
2023/06/27 06:19:16;;;;;;;6.75;2.67;;;18.80;99.90;;;;;;5009456;28;20781;-42
2023/06/27 06:21:41;;;;;;;4.05;2.72;;;18.90;99.90;;;;;;4999895;28;20278;-42
2023/06/27 06:24:10;;;;;;;5.85;2.75;;;19.00;99.90;;;;;;5000859;28;20194;-42
2023/06/27 06:26:37;;;;;;;6.13;2.78;;;19.10;99.90;;;;;;5007574;28;20180;-42
2023/06/27 06:29:03;;;;;;;7.68;2.85;;;19.10;99.90;;;;;;4984145;28;20183;-41
2023/06/27 06:31:29;;;;;;;3.42;2.47;;;19.20;99.90;;;;;;5000247;28;20187;-42
2023/06/27 06:33:57;;;;;;;3.15;2.20;;;19.20;99.90;;;;;;4980373;28;20184;-40
2023/06/27 06:36:23;;;;;;;6.85;3.25;;;19.20;99.90;;;;;;4994974;28;20187;-42
2023/06/27 06:38:49;;;;;;;4.32;2.38;;;19.30;99.90;;;;;;5015038;28;20211;-40
2023/06/27 06:41:15;;;;;;;6.40;2.67;;;19.30;99.90;;;;;;4995259;28;20194;-42
2023/06/27 06:43:41;;;;;;;5.60;3.10;;;19.40;99.90;;;;;;4994887;28;20215;-42
2023/06/27 06:46:09;;;;;;;6.65;2.85;;;19.50;99.90;;;;;;4999670;28;20180;-42
2023/06/27 06:48:35;;;;;;;5.05;2.60;;;19.50;99.90;;;;;;5005454;28;20194;-42
2023/06/27 06:51:01;;;;;;;5.35;2.40;;;19.60;99.90;;;;;;4991408;28;20176;-42
2023/06/27 06:53:27;;;;;;;6.72;2.70;;;19.70;99.90;;;;;;5004115;28;20706;-42
2023/06/27 06:55:53;;;;;;;7.85;2.42;;;19.80;99.90;;;;;;4995177;28;20206;-41
2023/06/27 06:58:19;;;;;;;3.55;2.30;;;19.80;99.90;;;;;;4994897;28;20223;-41
2023/06/27 07:00:44;;;;;;;5.13;2.67;;;19.90;99.90;;;;;;4991337;28;20188;-42
2023/06/27 07:03:10;;;;;;;4.80;2.30;;;19.90;99.90;;;;;;5011443;28;20281;-42
2023/06/27 07:05:37;;;;;;;10.07;2.53;;;20.10;99.90;;;;;;5009052;28;20269;-39
2023/06/27 07:08:04;;;;;;;4.97;2.03;;;20.30;99.90;;;;;;4989992;28;20218;-39
2023/06/27 07:10:30;;;;;;;4.05;1.92;;;20.40;99.90;;;;;;4983645;28;20227;-42
2023/06/27 07:12:56;;;;;;;5.45;2.30;;;20.60;99.90;;;;;;4999366;28;20184;-42
2023/06/27 07:15:23;;;;;;;3.30;2.33;;;20.90;99.90;;;;;;5013670;28;20274;-42
2023/06/27 07:17:53;;;;;;;5.07;2.17;;;21.20;99.90;;;;;;4988205;28;20212;-42
2023/06/27 07:20:22;;;;;;;4.47;2.00;;;21.30;99.90;;;;;;4991324;28;20230;-42
2023/06/27 07:22:49;;;;;;;4.93;2.13;;;21.30;99.90;;;;;;4999358;28;20208;-40
2023/06/27 07:25:15;;;;;;;3.22;2.20;;;21.40;99.90;;;;;;4992675;28;20185;-42
2023/06/27 07:27:42;;;;;;;2.80;2.13;;;21.50;99.90;;;;;;5005326;28;20268;-42
2023/06/27 07:30:09;;;;;;;3.45;2.20;;;21.50;99.90;;;;;;4992737;28;20176;-42
2023/06/27 07:32:35;;;;;;;3.83;2.10;;;21.60;99.90;;;;;;4996615;28;20179;-42
2023/06/27 07:35:00;;;;;;;5.40;2.15;;;21.90;99.90;;;;;;4988170;28;20179;-39
2023/06/27 07:37:26;;;;;;;4.35;1.95;;;22.00;99.90;;;;;;5002110;28;20207;-42
2023/06/27 07:39:52;;;;;;;4.32;2.33;;;22.20;99.90;;;;;;5006444;28;20198;-42
2023/06/27 07:42:18;;;;;;;6.22;2.22;;;22.30;99.90;;;;;;4976129;28;20223;-42
2023/06/27 07:44:44;;;;;;;2.47;2.08;;;22.40;99.90;;;;;;4993762;28;20291;-43
2023/06/27 07:47:10;;;;;;;3.30;1.70;;;22.30;99.90;;;;;;4993911;28;20210;-42
2023/06/27 07:49:39;;;;;;;3.00;1.70;;;22.50;99.90;;;;;;4997573;28;20180;-41
2023/06/27 07:52:11;;;;;;;2.45;1.70;;;22.70;99.90;;;;;;4995184;28;20285;-42
2023/06/27 07:54:37;;;;;;;3.85;2.40;;;22.80;99.90;;;;;;5007483;28;20190;-42
2023/06/27 07:57:04;;;;;;;3.63;1.90;;;23.00;99.90;;;;;;4986039;28;20219;-42
2023/06/27 07:59:30;;;;;;;2.97;2.25;;;23.20;99.90;;;;;;4981321;28;20192;-42
2023/06/27 08:01:56;;;;;;;3.17;2.00;;;23.10;99.90;;;;;;5010282;28;20242;-43
2023/06/27 08:04:22;;;;;;;4.68;1.90;;;23.20;99.90;;;;;;4994334;28;20183;-42
2023/06/27 08:06:48;;;;;;;3.13;1.75;;;23.40;99.90;;;;;;4986757;28;20219;-42
2023/06/27 08:09:14;;;;;;;5.13;2.00;;;23.50;99.90;;;;;;4988912;28;20183;-42
2023/06/27 08:11:40;;;;;;;4.43;2.03;;;23.50;99.90;;;;;;4994055;28;20187;-42
2023/06/27 08:14:06;;;;;;;3.65;2.40;;;23.60;99.90;;;;;;4993335;28;20175;-42
2023/06/27 08:16:35;;;;;;;3.00;1.92;;;23.50;99.90;;;;;;4999162;28;20192;-42
2023/06/27 08:19:01;;;;;;;5.65;2.35;;;23.50;99.90;;;;;;4994171;28;20184;-43
2023/06/27 08:21:27;;;;;;;4.95;2.20;;;23.50;99.90;;;;;;5000890;28;20175;-41
2023/06/27 08:23:53;;;;;;;3.72;2.30;;;23.40;99.90;;;;;;4995064;28;20234;-39
2023/06/27 08:26:19;;;;;;;3.38;2.00;;;23.30;99.90;;;;;;4990037;28;20180;-41
2023/06/27 08:28:45;;;;;;;3.38;2.22;;;23.00;99.90;;;;;;5020723;28;20312;-42
2023/06/27 08:31:12;;;;;;;5.32;2.05;;;23.10;99.90;;;;;;5008061;28;20188;-43
2023/06/27 08:33:39;;;;;;;7.20;2.28;;;23.30;99.90;;;;;;4995484;28;20187;-42
2023/06/27 08:36:06;;;;;;;4.45;2.08;;;23.40;99.90;;;;;;4991300;28;20179;-43
2023/06/27 08:38:31;;;;;;;5.55;2.10;;;23.60;99.90;;;;;;5002132;28;20294;-41
2023/06/27 08:41:00;;;;;;;4.35;2.30;;;23.90;99.90;;;;;;5002231;28;20310;-43
2023/06/27 08:43:26;;;;;;;5.43;2.60;;;24.10;99.90;;;;;;5003337;28;20211;-41
2023/06/27 08:45:57;;;;;;;3.72;1.98;;;23.80;99.90;;;;;;5018228;28;20196;-40
2023/06/27 08:48:24;;;;;;;2.80;2.10;;;23.90;99.90;;;;;;5006165;28;20278;-36
2023/06/27 08:50:54;;;;;;;4.43;2.35;;;23.90;99.90;;;;;;5009445;28;20171;-41
2023/06/27 08:53:27;;;;;;;4.75;2.05;;;23.90;99.90;;;;;;4990921;28;20229;-42
2023/06/27 08:56:10;;;;;;;4.20;1.85;;;23.70;99.90;;;;;;4986444;28;20215;-43
2023/06/27 08:58:46;;;;;;;5.65;2.20;;;23.80;99.90;;;;;;4984787;28;20208;-42
2023/06/27 09:01:12;;;;;;;3.65;2.22;;;23.60;99.90;;;;;;4989313;28;20191;-42
2023/06/27 09:03:38;;;;;;;2.58;1.92;;;23.40;99.90;;;;;;4989817;28;20203;-43
2023/06/27 09:06:05;;;;;;;4.18;2.15;;;23.40;99.90;;;;;;5008473;28;20183;-43
2023/06/27 09:08:32;;;;;;;3.92;2.15;;;23.60;99.90;;;;;;5009173;28;20205;-43
2023/06/27 09:11:00;;;;;;;6.00;2.10;;;23.70;99.90;;;;;;5010178;28;20247;-43
2023/06/27 09:13:27;;;;;;;3.33;2.13;;;24.10;99.90;;;;;;4992530;28;20179;-42
2023/06/27 09:15:53;;;;;;;4.22;2.10;;;24.40;99.90;;;;;;5009451;28;20183;-42
2023/06/27 09:18:19;;;;;;;5.93;2.47;;;24.50;99.90;;;;;;5004753;28;20227;-42
2023/06/27 09:20:46;;;;;;;4.30;2.15;;;24.50;99.90;;;;;;5001387;28;20245;-40
2023/06/27 09:23:12;;;;;;;3.97;2.45;;;24.20;99.90;;;;;;4975672;28;20242;-41
2023/06/27 09:25:38;;;;;;;3.83;2.10;;;24.60;99.90;;;;;;4998120;28;20240;-43
2023/06/27 09:28:30;;;;;;;4.50;2.10;;;24.40;99.90;;;;;;4989841;28;20227;-42
2023/06/27 09:30:57;;;;;;;5.85;2.20;;;24.10;99.90;;;;;;4996875;28;20270;-42
2023/06/27 09:33:25;;;;;;;3.45;2.30;;;23.90;99.90;;;;;;4989447;28;20196;-38
2023/06/27 09:35:51;;;;;;;6.40;1.98;;;23.70;99.90;;;;;;4988837;28;20195;-43
2023/06/27 09:38:19;;;;;;;3.63;1.90;;;23.80;99.90;;;;;;4977587;28;20208;-43
2023/06/27 09:40:45;;;;;;;5.38;2.10;;;24.00;99.90;;;;;;5006057;28;20195;-40
2023/06/27 09:43:13;;;;;;;3.60;2.22;;;24.20;99.90;;;;;;4993218;28;20241;-43
2023/06/27 09:45:39;;;;;;;2.75;2.17;;;24.40;99.90;;;;;;5001316;28;20184;-43
2023/06/27 09:48:09;;;;;;;3.55;2.00;;;24.30;99.80;;;;;;4999291;28;20295;-43
2023/06/27 09:50:35;;;;;;;3.70;2.10;;;24.30;99.90;;;;;;4999838;28;20180;-43
2023/06/27 09:53:05;;;;;;;2.88;2.05;;;24.20;99.90;;;;;;4985359;28;20183;-42
2023/06/27 09:55:31;;;;;;;4.82;1.98;;;24.30;99.90;;;;;;5017760;28;20199;-42
2023/06/27 09:57:57;;;;;;;4.20;2.00;;;24.50;99.90;;;;;;4992325;28;20211;-40
2023/06/27 10:00:26;;;;;;;5.05;2.17;;;24.40;99.70;;;;;;4993341;28;20187;-43
2023/06/27 10:02:53;;;;;;;3.80;2.08;;;24.50;99.10;;;;;;5017243;28;20239;-43
2023/06/27 10:05:20;;;;;;;3.25;1.88;;;24.70;99.40;;;;;;5010988;28;20282;-43
2023/06/27 10:07:53;;;;;;;4.50;2.00;;;24.80;99.50;;;;;;5000437;28;20211;-43
2023/06/27 10:10:25;;;;;;;2.92;1.88;;;24.70;99.80;;;;;;5002115;28;20176;-42
2023/06/27 10:12:54;;;;;;;2.30;1.80;;;24.50;99.90;;;;;;4971659;28;20214;-42
2023/06/27 10:15:20;;;;;;;4.50;2.10;;;24.50;99.90;;;;;;4985769;28;20188;-43
2023/06/27 10:17:46;;;;;;;5.63;2.20;;;24.50;99.90;;;;;;5004005;28;20203;-41
2023/06/27 10:20:13;;;;;;;3.35;2.40;;;24.50;99.30;;;;;;5020510;28;20226;-38
2023/06/27 10:22:42;;;;;;;4.93;2.13;;;24.50;98.70;;;;;;4992602;28;20230;-43
2023/06/27 10:25:09;;;;;;;3.75;1.92;;;24.60;99.00;;;;;;5011640;28;20202;-41
2023/06/27 10:27:42;;;;;;;3.83;2.00;;;24.60;99.50;;;;;;5000896;28;20203;-42
2023/06/27 10:30:20;;;;;;;3.25;2.00;;;24.60;99.90;;;;;;4998202;28;20225;-42
2023/06/27 10:32:49;;;;;;;2.30;1.90;;;24.70;99.40;;;;;;5003151;28;20184;-42
2023/06/27 10:35:26;;;;;;;2.75;2.03;;;24.80;99.40;;;;;;5008182;28;20275;-42
2023/06/27 10:38:14;;;;;;;4.85;2.47;;;25.00;99.20;;;;;;5007346;28;20207;-43
2023/06/27 10:41:09;;;;;;;3.97;2.25;;;25.30;98.70;;;;;;5001401;28;20242;-42
2023/06/27 10:43:46;;;;;;;4.82;2.20;;;25.40;97.90;;;;;;5015893;28;20207;-42
2023/06/27 10:46:31;;;;;;;6.28;2.17;;;25.60;97.90;;;;;;5014328;28;20179;-42
2023/06/27 10:49:03;;;;;;;5.10;2.17;;;25.40;97.30;;;;;;5001587;28;20180;-42
2023/06/27 10:51:42;;;;;;;3.50;2.00;;;25.20;97.70;;;;;;4981333;28;20275;-42
2023/06/27 10:54:08;;;;;;;4.30;2.00;;;25.10;97.80;;;;;;5008123;28;20211;-43
2023/06/27 10:56:39;;;;;;;3.55;2.22;;;25.10;98.60;;;;;;4985484;28;20238;-42
2023/06/27 10:59:09;;;;;;;3.30;1.98;;;25.00;98.10;;;;;;4991576;28;20225;-42
2023/06/27 11:01:40;;;;;;;4.35;2.45;;;25.00;97.50;;;;;;5003314;28;20179;-40
2023/06/27 11:04:20;;;;;;;4.43;2.33;;;25.00;97.90;;;;;;5003580;28;20270;-42
2023/06/27 11:06:46;;;;;;;4.13;2.10;;;25.00;97.20;;;;;;5006793;28;20187;-42
2023/06/27 11:09:15;;;;;;;3.20;2.15;;;24.90;97.60;;;;;;4993818;28;20187;-42
2023/06/27 11:11:51;;;;;;;4.05;2.17;;;24.70;97.70;;;;;;5016125;28;20198;-42
2023/06/27 11:14:37;;;;;;;2.58;1.90;;;24.70;97.40;;;;;;4980708;28;20175;-42
2023/06/27 11:17:04;;;;;;;6.00;2.10;;;24.70;97.20;;;;;;5009765;28;20238;-37
2023/06/27 11:19:38;;;;;;;2.92;1.85;;;24.80;97.80;;;;;;4986388;28;20183;-42
2023/06/27 11:22:05;;;;;;;2.85;2.03;;;24.90;97.00;;;;;;4999144;28;20661;-38
2023/06/27 11:24:32;;;;;;;3.60;2.20;;;25.10;97.70;;;;;;5000315;28;20241;-40
2023/06/27 11:27:01;;;;;;;3.17;2.15;;;25.30;97.60;;;;;;4994950;28;20235;-43
2023/06/27 11:29:29;;;;;;;3.03;1.95;;;25.40;97.00;;;;;;5008220;28;20194;-38
2023/06/27 11:31:55;;;;;;;4.25;2.25;;;25.40;97.10;;;;;;4994600;28;20334;-42
2023/06/27 11:34:24;;;;;;;4.18;2.10;;;25.50;97.10;;;;;;4979850;28;20267;-42
2023/06/27 11:36:51;;;;;;;3.58;2.42;;;25.60;97.20;;;;;;4959861;23;20231;-31
2023/06/27 11:39:20;;;;;;;2.80;2.10;;;25.40;97.60;;;;;;4996712;28;20179;-42
2023/06/27 11:41:52;;;;;;;2.55;1.85;;;25.30;96.70;;;;;;4999493;28;20274;-42
2023/06/27 11:44:20;;;;;;;4.03;2.28;;;25.10;96.80;;;;;;5009773;28;20187;-42
2023/06/27 11:47:00;;;;;;;2.58;2.10;;;25.20;98.30;;;;;;5011007;28;20204;-42
2023/06/27 11:49:27;;;;;;;4.03;2.25;;;25.40;98.40;;;;;;4997083;28;20229;-42
2023/06/27 11:51:58;;;;;;;4.65;2.00;;;25.60;98.10;;;;;;4995092;28;20239;-41
2023/06/27 11:54:24;;;;;;;6.07;2.20;;;25.80;96.40;;;;;;4976251;28;20179;-42
2023/06/27 11:56:51;;;;;;;3.13;2.17;;;26.10;96.60;;;;;;4996892;28;20220;-42
2023/06/27 11:59:29;;;;;;;3.55;2.13;;;26.40;95.90;;;;;;4978337;28;20171;-43
2023/06/27 12:01:57;;;;;;;4.95;2.10;;;26.50;95.80;;;;;;4994523;28;20183;-43
2023/06/27 12:04:23;;;;;;;5.57;2.10;;;26.80;95.60;;;;;;4997821;28;20172;-42
2023/06/27 12:06:49;;;;;;;4.18;2.00;;;27.10;95.90;;;;;;4970293;28;20214;-36
2023/06/27 12:09:27;;;;;;;4.97;2.22;;;27.10;95.40;;;;;;4992158;28;20263;-42
2023/06/27 12:11:58;;;;;;;3.25;2.20;;;27.40;95.50;;;;;;4992897;28;20223;-41
2023/06/27 12:14:28;;;;;;;3.55;2.00;;;27.40;95.20;;;;;;5012601;28;20175;-43
2023/06/27 12:16:56;;;;;;;3.70;2.15;;;27.50;95.20;;;;;;4986946;28;20243;-42
2023/06/27 12:19:27;;;;;;;3.42;2.28;;;27.40;95.00;;;;;;4988907;28;20267;-42
2023/06/27 12:21:54;;;;;;;3.42;2.20;;;27.10;94.30;;;;;;4986744;28;20207;-42
2023/06/27 12:24:23;;;;;;;5.10;2.35;;;26.90;94.70;;;;;;5003476;28;20172;-43
2023/06/27 12:26:49;;;;;;;4.78;2.22;;;26.60;95.20;;;;;;4974569;28;20207;-42
2023/06/27 12:29:17;;;;;;;5.18;2.17;;;26.30;96.00;;;;;;4973044;28;20184;-42
2023/06/27 12:31:43;;;;;;;2.60;1.70;;;26.20;95.80;;;;;;4971868;28;20180;-43
2023/06/27 12:34:10;;;;;;;3.90;2.38;;;26.10;95.60;;;;;;4978445;28;20180;-42
2023/06/27 12:36:36;;;;;;;4.05;2.30;;;26.10;95.40;;;;;;4977024;28;20239;-43
2023/06/27 12:39:03;;;;;;;6.55;2.33;;;26.30;96.30;;;;;;4979748;28;20192;-40
2023/06/27 12:41:31;;;;;;;3.50;1.90;;;26.40;95.10;;;;;;4983325;28;20180;-39
2023/06/27 12:43:58;;;;;;;2.90;2.10;;;26.70;95.50;;;;;;4996274;28;20312;-40
2023/06/27 12:46:27;;;;;;;4.15;2.15;;;26.90;95.40;;;;;;4981593;28;20225;-37
2023/06/27 12:48:59;;;;;;;5.35;2.47;;;27.20;95.20;;;;;;5007657;28;20175;-42
2023/06/27 12:51:25;;;;;;;2.75;2.05;;;27.30;94.40;;;;;;4988763;28;20190;-43